createdAt,value
2022-11-04T00:01:50.047Z,8.57
2022-11-04T00:04:38.429Z,9.20
2022-11-04T00:07:46.579Z,8.82
2022-11-04T00:10:52.359Z,8.90
2022-11-04T00:13:40.694Z,8.50
2022-11-04T00:16:47.669Z,9.70
2022-11-04T00:19:49.868Z,9.45
2022-11-04T00:22:57.367Z,9.18
2022-11-04T00:26:03.050Z,9.52
2022-11-04T00:28:54.297Z,9.43
2022-11-04T00:32:01.528Z,9.63
2022-11-04T00:34:49.864Z,9.20
2022-11-04T00:37:38.969Z,9.27
2022-11-04T00:40:27.466Z,9.25
2022-11-04T00:43:15.814Z,10.25
2022-11-04T00:46:04.136Z,9.60
2022-11-04T00:48:53.891Z,9.55
2022-11-04T00:51:42.214Z,9.93
2022-11-04T00:54:30.560Z,10.23
2022-11-04T00:57:18.924Z,9.68
2022-11-04T01:00:08.604Z,10.20
2022-11-04T01:03:00.100Z,9.73
2022-11-04T01:05:49.923Z,9.43
2022-11-04T01:08:38.347Z,10.25
2022-11-04T01:11:28.310Z,10.57
2022-11-04T01:14:16.823Z,10.20
2022-11-04T01:17:05.090Z,10.32
2022-11-04T01:19:54.026Z,10.48
2022-11-04T01:22:43.709Z,9.95
2022-11-04T01:25:32.302Z,9.65
2022-11-04T01:28:20.623Z,10.15
2022-11-04T01:31:09.470Z,10.43
2022-11-04T01:33:58.545Z,10.60
2022-11-04T01:36:46.900Z,10.95
2022-11-04T01:39:36.588Z,10.70
2022-11-04T01:42:25.367Z,11.45
2022-11-04T01:45:15.442Z,11.52
2022-11-04T01:48:08.445Z,10.38
2022-11-04T01:50:57.187Z,10.65
2022-11-04T01:53:46.300Z,10.48
2022-11-04T01:56:37.217Z,10.10
2022-11-04T01:59:29.445Z,10.70
2022-11-04T02:02:17.853Z,10.30
2022-11-04T02:05:07.011Z,10.85
2022-11-04T02:07:58.962Z,10.40
2022-11-04T02:10:53.481Z,10.00
2022-11-04T02:13:42.210Z,10.55
2022-11-04T02:16:39.799Z,10.68
2022-11-04T02:19:49.845Z,10.25
2022-11-04T02:23:26.248Z,10.57
2022-11-04T02:27:04.735Z,10.00
2022-11-04T02:30:08.077Z,10.13
2022-11-04T02:33:18.469Z,9.98
2022-11-04T02:36:15.892Z,11.33
2022-11-04T02:39:12.358Z,10.52
2022-11-04T02:42:11.813Z,10.05
2022-11-04T02:45:14.250Z,10.60
2022-11-04T02:48:09.034Z,10.75
2022-11-04T02:51:04.695Z,10.55
2022-11-04T02:54:01.920Z,10.63
2022-11-04T02:56:53.497Z,10.48
2022-11-04T02:59:45.959Z,10.57
2022-11-04T03:02:40.556Z,10.80
2022-11-04T03:05:33.986Z,10.15
2022-11-04T03:08:28.274Z,11.20
2022-11-04T03:11:18.737Z,11.02
2022-11-04T03:14:10.885Z,10.57
2022-11-04T03:17:02.572Z,11.48
2022-11-04T03:19:56.077Z,10.68
2022-11-04T03:22:44.552Z,12.13
2022-11-04T03:25:37.558Z,11.10
2022-11-04T03:28:33.970Z,11.60
2022-11-04T03:31:28.327Z,11.75
2022-11-04T03:34:16.794Z,11.15
2022-11-04T03:37:06.894Z,12.45
2022-11-04T03:39:55.647Z,11.43
2022-11-04T03:42:47.580Z,11.25
2022-11-04T03:45:38.484Z,12.18
2022-11-04T03:48:26.970Z,12.32
2022-11-04T03:51:15.306Z,11.90
2022-11-04T03:54:06.032Z,12.05
2022-11-04T03:57:07.389Z,11.98
2022-11-04T04:00:10.375Z,12.77
2022-11-04T04:03:07.607Z,11.88
2022-11-04T04:06:00.342Z,12.10
2022-11-04T04:08:54.452Z,12.23
2022-11-04T04:11:50.846Z,11.35
2022-11-04T04:14:44.349Z,11.00
2022-11-04T04:17:38.689Z,12.68
2022-11-04T04:20:29.742Z,11.52
2022-11-04T04:26:44.379Z,11.38
2022-11-04T04:29:34.577Z,11.77
2022-11-04T04:32:25.700Z,11.80
2022-11-04T04:38:40.470Z,10.52
2022-11-04T04:42:00.652Z,10.30
2022-11-04T04:45:03.557Z,10.65
2022-11-04T04:47:53.612Z,10.63
2022-11-04T04:50:44.773Z,10.18
2022-11-04T04:53:33.090Z,9.98
2022-11-04T04:56:21.573Z,9.93
2022-11-04T04:59:09.895Z,9.52
2022-11-04T05:01:59.662Z,9.25
2022-11-04T05:04:48.120Z,9.43
2022-11-04T05:07:36.438Z,9.35
2022-11-04T05:10:24.757Z,9.13
2022-11-04T05:13:30.146Z,9.18
2022-11-04T05:16:18.616Z,9.70
2022-11-04T05:19:08.405Z,9.20
2022-11-04T05:21:56.756Z,9.02
2022-11-04T05:24:45.031Z,9.63
2022-11-04T05:27:33.370Z,8.52
2022-11-04T05:30:21.928Z,9.40
2022-11-04T05:33:10.709Z,8.48
2022-11-04T05:36:08.652Z,8.13
2022-11-04T05:38:56.982Z,8.32
2022-11-04T05:41:45.306Z,8.52
2022-11-04T05:44:33.621Z,8.27
2022-11-04T05:47:21.918Z,8.82
2022-11-04T05:50:10.576Z,8.60
2022-11-04T05:53:01.067Z,8.75
2022-11-04T05:55:49.552Z,8.85
2022-11-04T05:58:38.062Z,7.90
2022-11-04T06:01:30.325Z,8.02
2022-11-04T06:04:20.556Z,8.18
2022-11-04T06:07:09.989Z,8.87
2022-11-04T06:10:00.412Z,8.43
2022-11-04T06:12:48.949Z,7.75
2022-11-04T06:15:37.317Z,8.60
2022-11-04T06:18:25.670Z,8.18
2022-11-04T06:21:25.245Z,8.02
2022-11-04T06:24:13.754Z,8.57
2022-11-04T06:27:03.474Z,7.65
2022-11-04T06:29:52.840Z,8.82
2022-11-04T06:32:41.149Z,7.65
2022-11-04T06:35:29.480Z,7.70
2022-11-04T06:38:17.796Z,7.20
2022-11-04T06:41:06.743Z,7.35
2022-11-04T06:43:56.416Z,7.07
2022-11-04T06:46:45.490Z,7.30
2022-11-04T06:49:33.841Z,8.38
2022-11-04T06:52:22.170Z,7.78
2022-11-04T06:55:11.339Z,7.32
2022-11-04T06:57:59.610Z,5.30
2022-11-04T07:00:53.940Z,4.82
2022-11-04T07:03:43.176Z,3.90
2022-11-04T07:06:31.719Z,4.18
2022-11-04T07:09:20.016Z,3.47
2022-11-04T07:12:08.362Z,3.60
2022-11-04T07:14:56.757Z,3.53
2022-11-04T07:17:46.445Z,3.33
2022-11-04T07:20:34.900Z,3.50
2022-11-04T07:23:23.232Z,2.65
2022-11-04T07:26:13.022Z,3.00
2022-11-04T07:29:01.390Z,2.85
2022-11-04T07:31:50.862Z,2.67
2022-11-04T07:34:42.750Z,2.63
2022-11-04T07:37:31.833Z,2.00
2022-11-04T07:40:20.237Z,2.40
2022-11-04T07:43:08.582Z,2.17
2022-11-04T07:46:04.794Z,2.28
2022-11-04T07:48:53.144Z,1.83
2022-11-04T07:51:42.949Z,1.70
2022-11-04T07:54:31.294Z,1.92
2022-11-04T07:57:19.621Z,1.90
2022-11-04T08:00:09.473Z,1.80
2022-11-04T08:02:57.829Z,1.70
2022-11-04T08:05:46.204Z,4.13
2022-11-04T08:08:36.247Z,4.03
2022-11-04T08:11:28.418Z,1.75
2022-11-04T08:14:16.822Z,2.00
2022-11-04T08:17:05.154Z,2.03
2022-11-04T08:19:53.503Z,1.90
2022-11-04T08:22:42.086Z,3.15
2022-11-04T08:25:31.839Z,2.42
2022-11-04T08:28:20.285Z,3.58
2022-11-04T08:31:11.886Z,2.30
2022-11-04T08:34:00.241Z,2.10
2022-11-04T08:36:50.446Z,2.60
2022-11-04T08:39:38.864Z,1.83
2022-11-04T08:42:28.529Z,1.50
2022-11-04T08:45:17.261Z,2.10
2022-11-04T08:48:05.997Z,3.65
2022-11-04T08:50:56.609Z,1.70
2022-11-04T08:53:44.960Z,1.80
2022-11-04T08:56:35.426Z,2.10
2022-11-04T08:59:25.402Z,1.77
2022-11-04T09:02:15.887Z,1.90
2022-11-04T09:05:04.457Z,1.67
2022-11-04T09:07:52.784Z,4.00
2022-11-04T09:10:43.654Z,2.42
2022-11-04T09:13:35.510Z,1.83
2022-11-04T09:16:29.530Z,2.78
2022-11-04T09:19:17.856Z,3.57
2022-11-04T09:22:06.271Z,2.60
2022-11-04T09:24:54.591Z,2.08
2022-11-04T09:27:42.898Z,1.58
2022-11-04T09:30:31.281Z,1.20
2022-11-04T09:33:20.973Z,1.33
2022-11-04T09:36:10.376Z,1.65
2022-11-04T09:38:58.725Z,1.30
2022-11-04T09:42:06.255Z,1.60
2022-11-04T09:48:11.545Z,0.93
2022-11-04T09:51:04.149Z,0.90
2022-11-04T09:53:57.362Z,1.50
2022-11-04T09:56:49.805Z,1.23
2022-11-04T09:59:38.130Z,1.23
2022-11-04T10:02:41.857Z,1.10
2022-11-04T10:05:45.383Z,0.98
2022-11-04T10:08:48.304Z,1.83
2022-11-04T10:11:42.963Z,1.30
2022-11-04T10:14:47.480Z,1.38
2022-11-04T10:17:53.864Z,1.20
2022-11-04T10:20:53.706Z,1.98
2022-11-04T10:23:46.847Z,1.67
2022-11-04T10:26:41.437Z,1.40
2022-11-04T10:29:35.131Z,2.28
2022-11-04T10:32:29.155Z,1.10
2022-11-04T10:35:26.080Z,1.40
2022-11-04T10:38:21.244Z,1.80
2022-11-04T10:41:31.740Z,1.80
2022-11-04T10:44:26.324Z,1.65
2022-11-04T10:47:31.737Z,2.10
2022-11-04T10:50:32.009Z,1.88
2022-11-04T10:53:21.691Z,1.83
2022-11-04T10:56:18.974Z,1.67
2022-11-04T10:59:20.678Z,1.70
2022-11-04T11:02:09.995Z,1.90
2022-11-04T11:05:14.447Z,2.00
2022-11-04T11:08:02.866Z,2.10
2022-11-04T11:10:53.587Z,2.00
2022-11-04T11:13:44.083Z,2.03
2022-11-04T11:16:33.743Z,1.70
2022-11-04T11:19:25.029Z,2.03
2022-11-04T11:22:33.322Z,2.42
2022-11-04T11:25:27.734Z,1.73
2022-11-04T11:28:24.733Z,2.35
2022-11-04T11:31:23.328Z,2.10
2022-11-04T11:34:22.345Z,1.90
2022-11-04T11:37:23.710Z,2.20
2022-11-04T11:40:28.462Z,1.77
2022-11-04T11:43:25.871Z,1.90
2022-11-04T11:46:14.958Z,2.05
2022-11-04T11:49:05.192Z,2.10
2022-11-04T11:51:54.889Z,2.20
2022-11-04T11:54:46.274Z,2.40
2022-11-04T11:57:45.197Z,2.08
2022-11-04T12:00:40.200Z,2.00
2022-11-04T12:10:18.393Z,2.00
2022-11-04T12:13:24.712Z,2.70
2022-11-04T12:16:26.539Z,2.75
2022-11-04T12:19:51.561Z,2.13
2022-11-04T12:22:47.652Z,2.72
2022-11-04T12:25:45.009Z,2.72
2022-11-04T12:28:45.848Z,2.83
2022-11-04T12:31:44.103Z,2.85
2022-11-04T12:34:45.686Z,2.80
2022-11-04T12:37:41.529Z,3.10
2022-11-04T12:40:32.537Z,2.65
2022-11-04T12:46:28.614Z,3.00
2022-11-04T12:49:48.416Z,2.92
2022-11-04T12:52:46.911Z,3.10
2022-11-04T12:55:45.229Z,3.45
2022-11-04T12:58:47.468Z,3.00
2022-11-04T13:01:43.315Z,3.45
2022-11-04T13:04:36.798Z,3.00
2022-11-04T13:07:31.583Z,2.80
2022-11-04T13:10:24.232Z,3.40
2022-11-04T13:13:15.525Z,3.40
2022-11-04T13:16:10.239Z,2.92
2022-11-04T13:19:00.159Z,3.33
2022-11-04T13:21:49.667Z,3.00
2022-11-04T13:24:41.664Z,3.00
2022-11-04T13:27:35.157Z,2.95
2022-11-04T13:30:32.488Z,3.00
2022-11-04T13:33:31.248Z,2.30
2022-11-04T13:36:34.360Z,2.83
2022-11-04T13:39:29.318Z,2.47
2022-11-04T13:43:17.832Z,2.05
2022-11-04T13:46:17.133Z,2.55
2022-11-04T13:49:17.840Z,2.58
2022-11-04T13:52:09.358Z,2.40
2022-11-04T13:55:00.726Z,1.83
2022-11-04T13:57:54.721Z,2.13
2022-11-04T14:01:10.586Z,2.20
2022-11-04T14:06:55.487Z,2.10
2022-11-04T14:09:54.769Z,2.08
2022-11-04T14:12:43.187Z,2.15
2022-11-04T14:16:02.522Z,2.67
2022-11-04T14:18:52.800Z,2.97
2022-11-04T14:22:13.342Z,2.50
2022-11-04T14:25:04.473Z,2.20
2022-11-04T14:27:57.766Z,2.53
2022-11-04T14:30:50.693Z,2.30
2022-11-04T14:33:51.077Z,2.35
2022-11-04T14:36:40.414Z,2.55
2022-11-04T14:39:34.318Z,2.42
2022-11-04T14:42:45.281Z,2.47
2022-11-04T14:45:40.609Z,2.60
2022-11-04T14:48:29.906Z,2.30
2022-11-04T14:51:27.794Z,2.33
2022-11-04T14:54:22.618Z,2.40
2022-11-04T14:57:20.466Z,2.13
2022-11-04T15:00:30.305Z,2.90
2022-11-04T15:06:47.373Z,2.72
2022-11-04T15:09:50.607Z,3.63
2022-11-04T15:12:51.781Z,2.42
2022-11-04T15:18:30.221Z,2.85
2022-11-04T15:21:18.577Z,2.90
2022-11-04T15:24:07.514Z,3.10
2022-11-04T15:26:58.800Z,3.00
2022-11-04T15:29:56.663Z,3.30
2022-11-04T15:32:54.857Z,3.72
2022-11-04T15:35:43.549Z,5.80
2022-11-04T15:38:32.602Z,4.57
2022-11-04T15:41:41.167Z,4.55
2022-11-04T15:44:31.437Z,4.70
2022-11-04T15:47:25.883Z,4.47
2022-11-04T15:50:24.200Z,4.38
2022-11-04T15:53:12.916Z,4.72
2022-11-04T15:56:02.005Z,4.57
2022-11-04T15:58:51.481Z,4.50
2022-11-04T16:01:46.847Z,4.45
2022-11-04T16:04:36.692Z,4.45
2022-11-04T16:07:25.280Z,4.40
2022-11-04T16:10:31.352Z,5.00
2022-11-04T16:13:23.828Z,6.78
2022-11-04T16:16:24.290Z,12.05
2022-11-04T16:19:23.096Z,16.20
2022-11-04T16:22:18.572Z,12.23
2022-11-04T16:25:11.014Z,8.98
2022-11-04T16:28:00.569Z,4.38
2022-11-04T16:30:58.122Z,3.20
2022-11-04T16:33:46.651Z,3.03
2022-11-04T16:36:36.054Z,3.53
2022-11-04T16:39:26.085Z,3.13
2022-11-04T16:42:16.004Z,4.15
2022-11-04T16:45:10.038Z,3.17
2022-11-04T16:47:58.865Z,3.10
2022-11-04T16:50:49.013Z,3.13
2022-11-04T16:53:37.341Z,3.33
2022-11-04T16:56:28.313Z,3.42
2022-11-04T16:59:16.609Z,3.15
2022-11-04T17:02:22.314Z,3.45
2022-11-04T17:05:12.631Z,4.07
2022-11-04T17:08:06.166Z,3.55
2022-11-04T17:10:54.740Z,4.40
2022-11-04T17:13:44.517Z,4.32
2022-11-04T17:16:32.805Z,3.85
2022-11-04T17:19:21.141Z,4.05
2022-11-04T17:22:10.019Z,4.32
2022-11-04T17:24:58.321Z,4.50
2022-11-04T17:27:46.808Z,4.60
2022-11-04T17:30:36.599Z,4.68
2022-11-04T17:33:24.895Z,4.20
2022-11-04T17:36:18.062Z,4.50
2022-11-04T17:39:06.407Z,3.85
2022-11-04T17:42:12.578Z,4.28
2022-11-04T17:45:00.866Z,4.10
2022-11-04T17:47:50.528Z,4.07
2022-11-04T17:50:39.991Z,4.25
2022-11-04T17:53:28.349Z,4.03
2022-11-04T17:56:17.114Z,4.47
2022-11-04T17:59:05.853Z,4.20
2022-11-04T18:01:54.525Z,4.40
2022-11-04T18:04:45.955Z,3.70
2022-11-04T18:07:34.653Z,3.72
2022-11-04T18:10:22.985Z,3.72
2022-11-04T18:13:11.688Z,4.07
2022-11-04T18:16:10.190Z,4.32
2022-11-04T18:18:59.689Z,3.72
2022-11-04T18:21:50.101Z,4.13
2022-11-04T18:24:38.535Z,4.03
2022-11-04T18:27:26.943Z,4.40
2022-11-04T18:30:16.106Z,4.28
2022-11-04T18:33:04.454Z,4.20
2022-11-04T18:35:52.778Z,4.65
2022-11-04T18:38:42.408Z,4.85
2022-11-04T18:41:30.824Z,4.82
2022-11-04T18:44:20.641Z,4.80
2022-11-04T18:47:09.057Z,5.57
2022-11-04T18:49:57.383Z,5.65
2022-11-04T18:52:45.760Z,6.20
2022-11-04T18:55:35.532Z,6.20
2022-11-04T18:58:25.132Z,6.45
2022-11-04T19:01:17.542Z,6.03
2022-11-04T19:04:14.459Z,6.82
2022-11-04T19:07:04.432Z,6.57
2022-11-04T19:09:54.664Z,6.65
2022-11-04T19:13:07.301Z,7.00
2022-11-04T19:15:55.631Z,5.90
2022-11-04T19:18:43.963Z,6.50
2022-11-04T19:21:32.468Z,6.38
2022-11-04T19:24:20.783Z,5.65
2022-11-04T19:27:09.108Z,5.80
2022-11-04T19:29:58.819Z,6.30
2022-11-04T19:32:47.214Z,5.68
2022-11-04T19:35:35.501Z,5.85
2022-11-04T19:38:24.513Z,6.22
2022-11-04T19:41:28.989Z,5.20
2022-11-04T19:44:19.295Z,5.22
2022-11-04T19:47:09.778Z,4.88
2022-11-04T19:49:58.105Z,4.53
2022-11-04T19:52:46.429Z,4.90
2022-11-04T19:55:35.610Z,4.90
2022-11-04T19:58:24.149Z,4.60
2022-11-04T20:01:13.895Z,4.88
2022-11-04T20:04:03.824Z,5.53
2022-11-04T20:06:52.184Z,4.95
2022-11-04T20:09:40.900Z,5.05
2022-11-04T20:12:46.893Z,5.13
2022-11-04T20:15:35.490Z,4.47
2022-11-04T20:18:23.821Z,5.13
2022-11-04T20:21:13.688Z,5.85
2022-11-04T20:24:04.773Z,5.05
2022-11-04T20:29:41.381Z,5.30
2022-11-04T20:32:29.790Z,4.45
2022-11-04T20:35:18.840Z,4.80
2022-11-04T20:38:08.798Z,5.63
2022-11-04T20:41:02.392Z,5.40
2022-11-04T20:43:51.579Z,5.22
2022-11-04T20:46:40.705Z,5.13
2022-11-04T20:49:29.900Z,5.03
2022-11-04T20:52:18.217Z,5.38
2022-11-04T20:55:10.071Z,5.60
2022-11-04T20:57:58.416Z,5.18
2022-11-04T21:00:47.111Z,6.10
2022-11-04T21:03:35.702Z,5.30
2022-11-04T21:06:24.059Z,5.13
2022-11-04T21:09:14.634Z,4.75
2022-11-04T21:12:04.576Z,5.75
2022-11-04T21:14:52.933Z,5.22
2022-11-04T21:17:41.301Z,6.05
2022-11-04T21:20:29.645Z,5.57
2022-11-04T21:23:20.345Z,5.80
2022-11-04T21:26:11.119Z,6.55
2022-11-04T21:29:05.238Z,5.78
2022-11-04T21:31:53.672Z,6.28
2022-11-04T21:34:41.954Z,6.45
2022-11-04T21:37:33.601Z,5.85
2022-11-04T21:40:25.211Z,5.78
2022-11-04T21:43:14.462Z,6.28
2022-11-04T21:46:05.860Z,5.82
2022-11-04T21:48:54.206Z,5.82
2022-11-04T21:51:42.556Z,6.10
2022-11-04T21:54:31.531Z,6.18
2022-11-04T21:57:19.837Z,6.78
2022-11-04T22:00:10.676Z,6.43
2022-11-04T22:03:00.346Z,6.93
2022-11-04T22:05:58.205Z,7.32
2022-11-04T22:08:49.525Z,6.60
2022-11-04T22:11:39.449Z,7.25
2022-11-04T22:14:29.580Z,7.72
2022-11-04T22:17:17.915Z,7.53
2022-11-04T22:20:08.942Z,7.65
2022-11-04T22:25:49.907Z,7.40
2022-11-04T22:28:38.768Z,7.80
2022-11-04T22:31:28.983Z,7.60
2022-11-04T22:34:17.320Z,7.43
2022-11-04T22:37:07.013Z,7.32
2022-11-04T22:39:55.368Z,7.50
2022-11-04T22:42:44.270Z,7.85
2022-11-04T22:45:32.902Z,7.25
2022-11-04T22:48:21.365Z,7.32
2022-11-04T22:51:11.007Z,7.53
2022-11-04T22:54:07.619Z,6.97
2022-11-04T22:56:56.409Z,7.03
2022-11-04T22:59:44.685Z,7.18
2022-11-04T23:02:36.763Z,7.05
2022-11-04T23:05:27.192Z,7.40
2022-11-04T23:08:15.537Z,7.88
2022-11-04T23:11:26.753Z,7.82
2022-11-04T23:17:39.737Z,7.65
2022-11-04T23:20:29.689Z,7.72
2022-11-04T23:23:35.482Z,7.85
2022-11-04T23:26:27.794Z,7.88
2022-11-04T23:29:37.040Z,8.23
2022-11-04T23:32:27.402Z,7.93
2022-11-04T23:35:33.485Z,8.30
2022-11-04T23:38:22.318Z,8.10
2022-11-04T23:41:28.189Z,8.20
2022-11-04T23:44:31.753Z,7.57
2022-11-04T23:47:37.753Z,7.18
2022-11-04T23:50:46.335Z,7.25
2022-11-04T23:53:52.170Z,6.95
2022-11-04T23:56:58.309Z,7.57
